Time;durP1;ratioP1;P1;durP2;ratioP2;P2;SDS_P1;SDS_P2;PMS_P1;PMS_P2;Temp;Humidity;BMP_temperature;BMP_pressure;BME280_temperature;BME280_humidity;BME280_pressure;Samples;Min_cycle;Max_cycle;Signal;HPM_P1;HPM_P2
2021/06/08 00:01:34;;;;;;;5.85;5.20;;;;;22.50;102245.00;;;;5107997;28;20471;-77
2021/06/08 00:04:02;;;;;;;7.43;5.78;;;;;22.50;102252.00;;;;5104567;28;20274;-77
2021/06/08 00:06:29;;;;;;;7.47;6.00;;;;;22.40;102243.00;;;;5103077;28;20326;-78
2021/06/08 00:08:56;;;;;;;6.85;5.07;;;;;22.40;102246.00;;;;5095904;28;20191;-77
2021/06/08 00:11:23;;;;;;;7.45;5.80;;;;;22.40;102240.00;;;;5102405;28;20200;-77
2021/06/08 00:13:50;;;;;;;6.32;5.65;;;;;22.40;102246.00;;;;5088271;28;20537;-76
2021/06/08 00:16:17;;;;;;;7.00;4.80;;;;;22.40;102245.00;;;;5107854;28;20201;-77
2021/06/08 00:18:44;;;;;;;5.38;4.88;;;;;22.30;102243.00;;;;5092530;28;20202;-77
2021/06/08 00:21:13;;;;;;;6.90;4.97;;;;;22.30;102248.00;;;;5104640;28;20203;-77
2021/06/08 00:23:39;;;;;;;6.28;5.28;;;;;22.30;102250.00;;;;5108018;28;20221;-77
2021/06/08 00:32:51;;;;;;;6.25;4.78;;;;;22.20;102247.00;;;;4219601;28;20695;-77
2021/06/08 00:35:17;;;;;;;4.95;4.47;;;;;22.20;102245.00;;;;5107738;28;20198;-78
2021/06/08 00:37:46;;;;;;;7.78;5.43;;;;;22.20;102248.00;;;;5101681;28;20676;-77
2021/06/08 00:40:13;;;;;;;9.27;5.30;;;;;22.20;102251.00;;;;5098642;28;20391;-77
2021/06/08 00:42:40;;;;;;;4.93;4.22;;;;;22.20;102251.00;;;;5106820;28;20201;-77
2021/06/08 00:45:09;;;;;;;6.30;5.40;;;;;22.20;102245.00;;;;5094412;28;20741;-77
2021/06/08 00:47:36;;;;;;;6.72;5.65;;;;;22.20;102245.00;;;;5088680;28;20190;-77
2021/06/08 00:50:04;;;;;;;6.22;5.07;;;;;22.20;102250.00;;;;5097832;28;20213;-77
2021/06/08 00:52:31;;;;;;;5.75;4.78;;;;;22.10;102244.00;;;;5108015;28;20668;-77
2021/06/08 00:55:00;;;;;;;7.93;4.75;;;;;22.10;102246.00;;;;5100003;28;20198;-77
2021/06/08 00:57:26;;;;;;;6.03;5.13;;;;;22.10;102252.00;;;;5088211;28;20281;-77
2021/06/08 00:59:53;;;;;;;7.32;5.38;;;;;22.10;102248.00;;;;5108692;28;20250;-77
2021/06/08 01:02:20;;;;;;;5.38;4.80;;;;;22.10;102246.00;;;;5107585;28;20281;-77
2021/06/08 01:04:47;;;;;;;7.07;4.70;;;;;22.10;102251.00;;;;5107606;28;20225;-77
2021/06/08 01:07:14;;;;;;;5.85;4.97;;;;;22.10;102245.00;;;;5107269;28;20209;-77
2021/06/08 01:09:41;;;;;;;7.10;5.50;;;;;22.00;102248.00;;;;5090984;28;20203;-77
2021/06/08 01:12:10;;;;;;;6.82;4.47;;;;;22.00;102245.00;;;;5094770;28;20197;-77
2021/06/08 01:14:36;;;;;;;5.20;4.30;;;;;22.00;102248.00;;;;5107348;28;20731;-77
2021/06/08 01:17:03;;;;;;;5.10;4.60;;;;;22.00;102246.00;;;;5091372;28;20243;-77
2021/06/08 01:19:30;;;;;;;5.72;4.72;;;;;21.90;102247.00;;;;5100646;28;20198;-77
2021/06/08 01:21:58;;;;;;;4.70;4.20;;;;;21.90;102253.00;;;;5110887;28;20777;-77
2021/06/08 01:24:25;;;;;;;5.35;4.85;;;;;21.90;102250.00;;;;5111072;28;20236;-77
2021/06/08 01:26:52;;;;;;;5.30;4.80;;;;;21.80;102252.00;;;;5109878;28;20303;-77
2021/06/08 01:29:19;;;;;;;5.22;4.75;;;;;21.80;102246.00;;;;5111665;28;20202;-77
2021/06/08 01:31:48;;;;;;;6.28;4.82;;;;;21.80;102244.00;;;;5110122;28;20231;-77
2021/06/08 01:34:16;;;;;;;5.20;4.65;;;;;21.80;102245.00;;;;5110329;28;20198;-77
2021/06/08 01:36:44;;;;;;;4.90;4.43;;;;;21.70;102245.00;;;;5110673;28;20193;-78
2021/06/08 01:39:12;;;;;;;5.13;4.50;;;;;21.70;102241.00;;;;5092071;28;20248;-77
2021/06/08 01:41:40;;;;;;;6.20;4.82;;;;;21.70;102235.00;;;;5099089;28;20232;-77
2021/06/08 01:44:07;;;;;;;6.57;5.05;;;;;21.70;102242.00;;;;5110718;28;20270;-77
2021/06/08 01:46:33;;;;;;;7.38;5.00;;;;;21.70;102241.00;;;;5110890;28;20588;-77
2021/06/08 01:49:00;;;;;;;6.85;4.75;;;;;21.60;102242.00;;;;5109648;28;20212;-77
2021/06/08 01:51:36;;;;;;;7.15;4.68;;;;;21.60;102236.00;;;;5108100;28;20187;-77
2021/06/08 01:54:12;;;;;;;4.55;4.13;;;;;21.60;102232.00;;;;5110635;28;20227;-77
2021/06/08 01:56:44;;;;;;;6.60;4.63;;;;;21.50;102234.00;;;;5099477;28;20209;-78
2021/06/08 01:59:21;;;;;;;5.50;4.65;;;;;21.50;102231.00;;;;5103883;28;20233;-77
2021/06/08 02:01:55;;;;;;;5.68;4.13;;;;;21.50;102235.00;;;;5108616;28;20194;-77
2021/06/08 02:04:26;;;;;;;5.50;3.97;;;;;21.40;102230.00;;;;5091210;28;20698;-78
2021/06/08 02:07:06;;;;;;;6.20;4.90;;;;;21.40;102234.00;;;;5109814;28;20196;-78
2021/06/08 02:09:41;;;;;;;5.43;4.05;;;;;21.40;102230.00;;;;5110714;28;20294;-78
2021/06/08 02:12:15;;;;;;;6.03;5.45;;;;;21.40;102236.00;;;;5108398;28;20290;-78
2021/06/08 02:14:47;;;;;;;5.22;4.15;;;;;21.40;102236.00;;;;5109188;28;20233;-77
2021/06/08 02:17:18;;;;;;;6.80;4.35;;;;;21.30;102239.00;;;;5090678;28;20229;-77
2021/06/08 02:19:48;;;;;;;5.70;5.10;;;;;21.30;102239.00;;;;5109375;27;20208;-77
2021/06/08 02:22:16;;;;;;;4.68;4.22;;;;;21.30;102229.00;;;;5108356;28;20221;-78
2021/06/08 02:24:46;;;;;;;4.57;3.90;;;;;21.30;102236.00;;;;5109483;28;20232;-77
2021/06/08 02:27:15;;;;;;;4.40;3.72;;;;;21.20;102234.00;;;;5105741;28;20287;-77
2021/06/08 02:29:46;;;;;;;6.57;4.50;;;;;21.20;102236.00;;;;5095546;28;20193;-78
2021/06/08 02:32:13;;;;;;;6.25;4.50;;;;;21.20;102242.00;;;;5102581;28;20221;-77
2021/06/08 02:34:42;;;;;;;4.25;3.85;;;;;21.20;102243.00;;;;5092565;28;20668;-77
2021/06/08 02:37:11;;;;;;;4.55;3.85;;;;;21.20;102255.00;;;;5109629;28;20260;-77
2021/06/08 02:39:39;;;;;;;7.35;4.05;;;;;21.20;102256.00;;;;5109272;28;20194;-78
2021/06/08 02:42:09;;;;;;;4.72;3.63;;;;;21.10;102261.00;;;;5110285;28;20217;-77
2021/06/08 02:44:38;;;;;;;5.00;4.13;;;;;21.10;102255.00;;;;5096509;28;20233;-78
2021/06/08 02:47:06;;;;;;;7.25;4.07;;;;;21.10;102252.00;;;;5089461;28;20237;-77
2021/06/08 02:49:34;;;;;;;4.80;4.03;;;;;21.10;102256.00;;;;5108954;28;20201;-77
2021/06/08 02:52:02;;;;;;;6.50;3.88;;;;;21.10;102254.00;;;;5097537;28;20209;-77
2021/06/08 02:54:29;;;;;;;5.20;4.63;;;;;21.00;102262.00;;;;5109340;28;20201;-77
2021/06/08 02:56:58;;;;;;;6.35;4.35;;;;;21.00;102257.00;;;;5109342;28;20197;-77
2021/06/08 02:59:27;;;;;;;4.65;4.15;;;;;21.00;102258.00;;;;5107251;28;20556;-77
2021/06/08 03:01:58;;;;;;;6.10;4.10;;;;;21.00;102258.00;;;;5109418;28;20235;-77
2021/06/08 03:04:33;;;;;;;4.63;4.18;;;;;21.00;102253.00;;;;5107635;28;20217;-77
2021/06/08 03:07:02;;;;;;;5.70;4.45;;;;;21.00;102255.00;;;;5101781;28;20193;-78
2021/06/08 03:09:35;;;;;;;4.88;4.38;;;;;20.90;102253.00;;;;5108955;28;20246;-77
2021/06/08 03:12:05;;;;;;;4.65;4.03;;;;;20.90;102250.00;;;;5103679;28;20194;-77
2021/06/08 03:14:32;;;;;;;5.53;4.22;;;;;20.90;102252.00;;;;5101637;28;20194;-77
2021/06/08 03:17:02;;;;;;;4.55;4.13;;;;;20.90;102258.00;;;;5090083;28;20225;-77
2021/06/08 03:19:33;;;;;;;5.10;4.22;;;;;20.80;102240.00;;;;5097712;28;20639;-77
2021/06/08 03:22:06;;;;;;;4.85;4.05;;;;;20.80;102249.00;;;;5098068;28;20715;-77
2021/06/08 03:24:36;;;;;;;4.65;4.22;;;;;20.80;102252.00;;;;5108718;28;20217;-77
2021/06/08 03:27:04;;;;;;;4.53;4.13;;;;;20.80;102242.00;;;;5102295;28;20214;-78
2021/06/08 03:29:33;;;;;;;6.53;4.50;;;;;20.80;102245.00;;;;5089587;28;20255;-77
2021/06/08 03:32:02;;;;;;;5.13;4.45;;;;;20.80;102244.00;;;;5089364;28;20182;-77
2021/06/08 03:34:31;;;;;;;5.10;4.32;;;;;20.80;102250.00;;;;5100073;28;20200;-77
2021/06/08 03:37:00;;;;;;;4.82;4.05;;;;;20.70;102240.00;;;;5107220;28;20190;-77
2021/06/08 03:39:28;;;;;;;4.30;3.90;;;;;20.70;102249.00;;;;5098399;28;20209;-77
2021/06/08 03:41:57;;;;;;;4.70;4.22;;;;;20.70;102242.00;;;;5103061;28;20217;-77
2021/06/08 03:44:24;;;;;;;6.05;4.22;;;;;20.70;102242.00;;;;5099504;28;20221;-77
2021/06/08 03:46:52;;;;;;;4.32;3.63;;;;;20.70;102244.00;;;;5105431;28;20251;-77
2021/06/08 03:49:21;;;;;;;6.32;4.75;;;;;20.70;102244.00;;;;5098835;28;20194;-77
2021/06/08 03:51:51;;;;;;;3.83;3.42;;;;;20.70;102246.00;;;;5108151;28;20189;-77
2021/06/08 03:54:19;;;;;;;4.10;3.55;;;;;20.70;102244.00;;;;5099027;28;20267;-77
2021/06/08 03:56:48;;;;;;;5.10;4.05;;;;;20.70;102250.00;;;;5092044;28;20185;-77
2021/06/08 03:59:18;;;;;;;4.20;3.75;;;;;20.70;102247.00;;;;5096546;28;20559;-77
2021/06/08 04:01:45;;;;;;;4.40;3.70;;;;;20.70;102247.00;;;;5107898;28;20198;-77
2021/06/08 04:04:14;;;;;;;4.38;3.78;;;;;20.70;102250.00;;;;5100926;28;20232;-77
2021/06/08 04:06:42;;;;;;;4.30;3.90;;;;;20.70;102254.00;;;;5097510;28;20243;-77
2021/06/08 04:09:10;;;;;;;4.03;3.60;;;;;20.70;102258.00;;;;5104678;28;20205;-77
2021/06/08 04:11:38;;;;;;;3.65;3.22;;;;;20.70;102256.00;;;;5108315;28;20264;-77
2021/06/08 04:14:05;;;;;;;3.65;3.25;;;;;20.60;102253.00;;;;5098779;28;20202;-77
2021/06/08 04:16:33;;;;;;;5.35;3.63;;;;;20.70;102252.00;;;;5105432;28;20574;-77
2021/06/08 04:19:00;;;;;;;4.57;3.63;;;;;20.70;102254.00;;;;5102513;28;20189;-77
2021/06/08 04:21:28;;;;;;;4.18;3.42;;;;;20.70;102258.00;;;;5090938;28;20186;-77
2021/06/08 04:24:00;;;;;;;5.97;4.72;;;;;20.60;102253.00;;;;5108095;28;20217;-77
2021/06/08 04:26:28;;;;;;;4.38;3.78;;;;;20.70;102251.00;;;;5107252;28;20193;-77
2021/06/08 04:28:56;;;;;;;5.53;3.97;;;;;20.70;102255.00;;;;5107322;28;20201;-77
2021/06/08 04:31:24;;;;;;;5.05;3.92;;;;;20.70;102260.00;;;;5108553;28;20197;-77
2021/06/08 04:33:51;;;;;;;4.18;3.75;;;;;20.70;102257.00;;;;5106598;28;20221;-77
2021/06/08 04:36:18;;;;;;;4.65;4.20;;;;;20.70;102258.00;;;;5108794;28;20197;-77
2021/06/08 04:38:46;;;;;;;4.50;3.65;;;;;20.80;102261.00;;;;5107572;28;20235;-77
2021/06/08 04:41:14;;;;;;;3.85;3.40;;;;;20.80;102250.00;;;;5095650;28;20217;-77
2021/06/08 04:43:42;;;;;;;4.13;3.58;;;;;20.80;102256.00;;;;5102556;28;20465;-77
2021/06/08 04:46:12;;;;;;;3.95;3.50;;;;;20.90;102255.00;;;;5106871;28;20544;-76
2021/06/08 04:48:39;;;;;;;3.78;3.40;;;;;20.90;102255.00;;;;5100610;28;20655;-77
2021/06/08 04:51:07;;;;;;;4.35;3.58;;;;;20.90;102262.00;;;;5107969;28;20563;-77
2021/06/08 04:53:34;;;;;;;5.20;3.78;;;;;21.00;102263.00;;;;5100533;28;20672;-77
2021/06/08 04:56:01;;;;;;;5.22;4.00;;;;;21.00;102268.00;;;;5097057;27;20204;-78
2021/06/08 04:58:29;;;;;;;4.63;3.78;;;;;21.00;102259.00;;;;5111317;28;20189;-77
2021/06/08 05:01:02;;;;;;;5.00;3.92;;;;;21.10;102266.00;;;;5111769;28;20196;-75
2021/06/08 05:03:32;;;;;;;3.85;3.30;;;;;21.10;102269.00;;;;5101918;28;20267;-76
2021/06/08 05:06:01;;;;;;;4.13;3.70;;;;;21.20;102271.00;;;;5104577;27;20194;-76
2021/06/08 05:08:33;;;;;;;4.68;3.35;;;;;21.20;102265.00;;;;5107946;28;20251;-76
2021/06/08 05:11:05;;;;;;;7.68;3.97;;;;;21.30;102265.00;;;;5098304;28;20571;-76
2021/06/08 05:13:35;;;;;;;5.03;3.80;;;;;21.30;102268.00;;;;5098364;28;20626;-76
2021/06/08 05:16:04;;;;;;;3.72;3.35;;;;;21.40;102268.00;;;;5112794;28;20201;-76
2021/06/08 05:18:32;;;;;;;4.43;3.40;;;;;21.50;102273.00;;;;5107710;28;20194;-76
2021/06/08 05:20:59;;;;;;;4.75;4.07;;;;;21.50;102273.00;;;;5097851;28;20207;-76
2021/06/08 05:23:26;;;;;;;4.00;3.60;;;;;21.60;102266.00;;;;5105882;28;20274;-77
2021/06/08 05:25:53;;;;;;;3.90;3.55;;;;;21.70;102270.00;;;;5094162;28;20230;-76
2021/06/08 05:28:20;;;;;;;3.50;3.20;;;;;21.70;102277.00;;;;5090494;28;20202;-75
2021/06/08 05:30:49;;;;;;;5.15;3.80;;;;;21.80;102275.00;;;;5091794;28;20194;-76
2021/06/08 05:33:20;;;;;;;11.07;4.00;;;;;21.90;102270.00;;;;5111283;28;20240;-76
2021/06/08 05:35:47;;;;;;;3.53;3.20;;;;;22.00;102279.00;;;;5110615;28;20212;-76
2021/06/08 05:38:14;;;;;;;4.68;4.05;;;;;22.10;102277.00;;;;5111006;28;20205;-75
2021/06/08 05:40:44;;;;;;;4.68;2.80;;;;;22.10;102275.00;;;;5111265;28;20221;-76
2021/06/08 05:43:11;;;;;;;4.07;2.80;;;;;22.20;102278.00;;;;5111819;28;20205;-76
2021/06/08 05:45:37;;;;;;;3.53;2.92;;;;;22.30;102277.00;;;;5110344;28;20201;-75
2021/06/08 05:48:07;;;;;;;5.63;3.40;;;;;22.30;102280.00;;;;5110364;28;20190;-76
2021/06/08 05:50:33;;;;;;;3.45;2.85;;;;;22.40;102282.00;;;;5110927;27;20606;-76
2021/06/08 05:53:00;;;;;;;4.28;3.22;;;;;22.50;102283.00;;;;5111451;28;20667;-76
2021/06/08 05:55:29;;;;;;;5.18;2.95;;;;;22.60;102282.00;;;;5104176;28;20202;-76
2021/06/08 05:57:57;;;;;;;4.43;2.88;;;;;22.70;102285.00;;;;5104313;28;20197;-77
2021/06/08 06:00:24;;;;;;;4.20;3.33;;;;;22.70;102280.00;;;;5104177;27;20245;-76
2021/06/08 06:02:53;;;;;;;3.00;2.65;;;;;22.80;102279.00;;;;5109963;28;20201;-77
2021/06/08 06:05:22;;;;;;;4.13;2.60;;;;;22.90;102280.00;;;;5105206;28;20213;-78
2021/06/08 06:07:48;;;;;;;3.60;3.28;;;;;22.90;102285.00;;;;5098655;28;20206;-79
2021/06/08 06:10:16;;;;;;;4.90;3.75;;;;;23.00;102287.00;;;;5090407;28;20255;-79
2021/06/08 06:12:43;;;;;;;3.72;2.80;;;;;23.10;102283.00;;;;5091357;28;20195;-79
2021/06/08 06:15:11;;;;;;;3.65;2.40;;;;;23.20;102285.00;;;;5110766;28;20671;-79
2021/06/08 06:17:40;;;;;;;3.55;2.80;;;;;23.20;102280.00;;;;5110234;28;20210;-78
2021/06/08 06:20:10;;;;;;;3.15;2.60;;;;;23.30;102291.00;;;;5107053;28;20197;-78
2021/06/08 06:22:39;;;;;;;3.55;2.70;;;;;23.40;102285.00;;;;5094050;28;20754;-79
2021/06/08 06:25:08;;;;;;;3.92;2.83;;;;;23.40;102283.00;;;;5099682;28;20725;-77
2021/06/08 06:27:35;;;;;;;2.08;1.80;;;;;23.50;102282.00;;;;5115642;27;20239;-77
2021/06/08 06:30:03;;;;;;;2.88;2.47;;;;;23.60;102284.00;;;;5110969;27;20201;-77
2021/06/08 06:32:30;;;;;;;3.55;2.30;;;;;23.70;102282.00;;;;5097241;28;20575;-77
2021/06/08 06:34:56;;;;;;;2.40;1.88;;;;;23.80;102284.00;;;;5102813;28;20202;-77
2021/06/08 06:37:24;;;;;;;3.08;1.80;;;;;23.90;102287.00;;;;5103719;28;20651;-78
2021/06/08 06:39:54;;;;;;;2.20;1.75;;;;;24.00;102286.00;;;;5095840;28;21142;-78
2021/06/08 06:42:25;;;;;;;2.13;1.73;;;;;24.00;102289.00;;;;5109558;27;20258;-78
2021/06/08 06:44:53;;;;;;;4.07;2.10;;;;;24.20;102288.00;;;;5097512;28;20214;-77
2021/06/08 06:47:20;;;;;;;2.60;1.67;;;;;24.20;102288.00;;;;5103767;28;20201;-78
2021/06/08 06:49:47;;;;;;;2.20;1.58;;;;;24.30;102289.00;;;;5095355;28;20251;-78
2021/06/08 06:52:14;;;;;;;2.45;1.55;;;;;24.40;102291.00;;;;5098684;28;20206;-78
2021/06/08 06:54:42;;;;;;;1.73;1.63;;;;;24.50;102297.00;;;;5099513;28;20202;-78
2021/06/08 06:57:10;;;;;;;1.60;1.27;;;;;24.60;102295.00;;;;5109183;28;20209;-78
2021/06/08 06:59:38;;;;;;;4.72;1.38;;;;;24.70;102295.00;;;;5101839;28;21005;-78
2021/06/08 07:02:05;;;;;;;1.33;1.23;;;;;24.80;102291.00;;;;5103650;28;20194;-78
2021/06/08 07:04:33;;;;;;;2.03;1.30;;;;;24.90;102300.00;;;;5102267;28;20226;-77
2021/06/08 07:07:00;;;;;;;1.75;1.33;;;;;25.00;102302.00;;;;5092021;28;20873;-78
2021/06/08 07:09:28;;;;;;;2.50;1.42;;;;;25.10;102298.00;;;;5101060;27;20194;-78
2021/06/08 07:11:56;;;;;;;1.45;1.35;;;;;25.20;102304.00;;;;5108151;28;20208;-78
2021/06/08 07:14:24;;;;;;;4.07;1.73;;;;;25.20;102310.00;;;;5108617;28;20212;-77
2021/06/08 07:16:53;;;;;;;1.30;1.20;;;;;25.30;102311.00;;;;5109757;28;20675;-76
2021/06/08 07:19:21;;;;;;;2.10;1.30;;;;;25.40;102308.00;;;;5108740;28;20202;-78
2021/06/08 07:21:49;;;;;;;1.58;1.38;;;;;25.50;102303.00;;;;5109762;28;20288;-77
2021/06/08 07:24:16;;;;;;;2.47;1.40;;;;;25.60;102305.00;;;;5108888;28;20221;-77
2021/06/08 07:26:43;;;;;;;1.63;1.52;;;;;25.70;102303.00;;;;5107768;28;20567;-77
2021/06/08 07:29:12;;;;;;;1.83;1.38;;;;;25.80;102303.00;;;;5108757;28;20209;-78
2021/06/08 07:31:47;;;;;;;1.75;1.40;;;;;25.90;102301.00;;;;5104238;28;20262;-78
2021/06/08 07:34:22;;;;;;;2.47;1.27;;;;;26.00;102301.00;;;;5109801;28;20718;-77
2021/06/08 07:36:49;;;;;;;1.42;1.15;;;;;26.10;102299.00;;;;5107751;28;20219;-78
2021/06/08 07:39:23;;;;;;;1.52;1.02;;;;;26.20;102297.00;;;;5105498;28;20189;-77
2021/06/08 07:41:59;;;;;;;1.15;1.00;;;;;26.30;102297.00;;;;5106096;28;20270;-78
2021/06/08 07:44:29;;;;;;;1.83;1.10;;;;;26.40;102301.00;;;;5107498;28;20220;-78
2021/06/08 07:47:02;;;;;;;2.28;1.30;;;;;26.50;102299.00;;;;5099336;28;20586;-78
2021/06/08 07:49:31;;;;;;;2.90;1.25;;;;;26.70;102305.00;;;;5103837;28;20255;-78
2021/06/08 07:51:58;;;;;;;2.22;1.20;;;;;26.80;102297.00;;;;5097649;28;20209;-79
2021/06/08 07:54:27;;;;;;;3.05;1.20;;;;;26.90;102294.00;;;;5108917;28;20202;-78
2021/06/08 07:56:54;;;;;;;1.50;1.00;;;;;27.00;102297.00;;;;5110426;28;20270;-78
2021/06/08 07:59:21;;;;;;;2.15;1.50;;;;;27.10;102296.00;;;;5105960;28;20228;-79
2021/06/08 08:01:48;;;;;;;2.13;1.20;;;;;27.20;102296.00;;;;5107571;28;20305;-78
2021/06/08 08:04:22;;;;;;;3.10;0.98;;;;;27.30;102294.00;;;;5109418;28;20224;-79
2021/06/08 08:06:51;;;;;;;1.40;1.00;;;;;27.50;102287.00;;;;5096103;28;20189;-79
2021/06/08 08:09:19;;;;;;;1.30;1.20;;;;;27.60;102282.00;;;;5110209;28;20728;-79
2021/06/08 08:11:47;;;;;;;1.25;0.80;;;;;27.70;102282.00;;;;5109643;28;20773;-80
2021/06/08 08:14:15;;;;;;;2.28;1.40;;;;;27.80;102294.00;;;;5108543;28;20208;-80
2021/06/08 08:16:45;;;;;;;0.80;0.70;;;;;28.00;102294.00;;;;5105189;28;20710;-79
2021/06/08 08:19:12;;;;;;;1.45;0.82;;;;;28.10;102294.00;;;;5106387;28;20196;-78
2021/06/08 08:21:40;;;;;;;1.80;0.73;;;;;28.20;102290.00;;;;5096495;28;20547;-79
2021/06/08 08:24:08;;;;;;;0.90;0.60;;;;;28.40;102289.00;;;;5107238;28;20236;-79
2021/06/08 08:26:35;;;;;;;1.52;0.95;;;;;28.50;102280.00;;;;5104801;28;20198;-78
2021/06/08 08:29:03;;;;;;;1.10;1.00;;;;;28.60;102281.00;;;;5103254;28;20258;-78
2021/06/08 08:31:32;;;;;;;1.25;1.00;;;;;28.70;102280.00;;;;5118541;28;20284;-78
2021/06/08 08:33:59;;;;;;;0.80;0.73;;;;;28.80;102278.00;;;;5118977;28;20718;-75
2021/06/08 08:36:29;;;;;;;1.50;1.02;;;;;28.90;102275.00;;;;5119467;28;20874;-76
2021/06/08 08:38:57;;;;;;;1.60;0.90;;;;;29.00;102280.00;;;;5117002;28;20194;-76
2021/06/08 08:41:24;;;;;;;1.02;0.90;;;;;29.10;102270.00;;;;5111412;28;20209;-77
2021/06/08 08:43:51;;;;;;;1.05;0.95;;;;;29.20;102274.00;;;;5094977;28;20262;-76
2021/06/08 08:46:20;;;;;;;1.88;1.10;;;;;29.30;102263.00;;;;5112119;28;20205;-76
2021/06/08 08:48:52;;;;;;;1.88;1.30;;;;;29.40;102263.00;;;;5105770;28;20202;-77
2021/06/08 08:51:21;;;;;;;1.80;1.25;;;;;29.50;102262.00;;;;5103081;28;20201;-77
2021/06/08 08:53:50;;;;;;;1.92;1.33;;;;;29.60;102272.00;;;;5111236;28;20201;-76
2021/06/08 08:56:18;;;;;;;1.90;1.38;;;;;29.60;102257.00;;;;5099415;28;20659;-76
2021/06/08 08:58:46;;;;;;;1.27;1.17;;;;;29.70;102261.00;;;;5105581;28;20205;-76
2021/06/08 09:01:14;;;;;;;1.27;1.17;;;;;29.80;102252.00;;;;5101164;28;20202;-76
2021/06/08 09:03:42;;;;;;;3.13;1.63;;;;;29.90;102256.00;;;;5112125;28;20204;-77
2021/06/08 09:06:11;;;;;;;1.83;1.00;;;;;29.90;102261.00;;;;5107124;28;20212;-78
2021/06/08 09:08:39;;;;;;;1.38;1.27;;;;;30.00;102254.00;;;;5117643;28;20213;-77
2021/06/08 09:11:07;;;;;;;1.27;0.85;;;;;30.10;102256.00;;;;5112827;28;20194;-77
2021/06/08 09:13:36;;;;;;;1.50;1.10;;;;;30.20;102261.00;;;;5101545;28;20194;-78
2021/06/08 09:16:03;;;;;;;1.65;1.17;;;;;30.30;102259.00;;;;5105106;28;20575;-78
2021/06/08 09:18:29;;;;;;;1.17;1.08;;;;;30.40;102259.00;;;;5110227;28;20197;-77
2021/06/08 09:21:12;;;;;;;2.75;1.80;;;;;30.40;102256.00;;;;5110945;28;20221;-77
2021/06/08 09:23:39;;;;;;;1.25;1.13;;;;;30.70;102256.00;;;;5108641;28;20201;-77
2021/06/08 09:26:06;;;;;;;2.33;1.17;;;;;30.70;102252.00;;;;5110837;28;20201;-77
2021/06/08 09:28:35;;;;;;;1.40;1.23;;;;;30.80;102254.00;;;;5110146;28;20884;-76
2021/06/08 09:31:06;;;;;;;1.30;1.20;;;;;30.80;102247.00;;;;5107157;28;20995;-76
2021/06/08 09:33:34;;;;;;;1.13;1.00;;;;;30.90;102253.00;;;;5110999;28;20779;-77
2021/06/08 09:36:03;;;;;;;1.20;1.02;;;;;31.00;102249.00;;;;5108999;28;20198;-77
2021/06/08 09:38:47;;;;;;;2.17;1.50;;;;;31.00;102246.00;;;;5107154;28;20197;-77
2021/06/08 09:41:23;;;;;;;2.63;1.50;;;;;31.10;102250.00;;;;5110989;28;20263;-77
2021/06/08 09:43:56;;;;;;;1.27;1.10;;;;;31.20;102249.00;;;;5106248;28;20197;-78
2021/06/08 09:46:25;;;;;;;1.20;1.10;;;;;31.30;102248.00;;;;5111027;28;20202;-77
2021/06/08 09:48:53;;;;;;;1.20;1.10;;;;;31.30;102249.00;;;;5111619;28;20193;-77
2021/06/08 09:51:20;;;;;;;1.42;1.20;;;;;31.40;102252.00;;;;5110566;28;20213;-77
2021/06/08 09:53:47;;;;;;;2.40;1.08;;;;;31.50;102255.00;;;;5107810;28;20202;-76
2021/06/08 09:56:15;;;;;;;2.55;1.27;;;;;31.50;102258.00;;;;5111099;28;20202;-76
2021/06/08 09:58:46;;;;;;;1.80;1.42;;;;;31.60;102245.00;;;;5110687;28;20240;-76
2021/06/08 10:01:19;;;;;;;2.80;1.30;;;;;31.60;102257.00;;;;5110060;28;20193;-76
2021/06/08 10:03:47;;;;;;;1.20;1.00;;;;;31.70;102250.00;;;;5109701;28;20201;-76
2021/06/08 10:06:16;;;;;;;1.42;1.33;;;;;31.70;102259.00;;;;5110191;28;20190;-78
2021/06/08 10:08:54;;;;;;;3.42;1.10;;;;;31.70;102255.00;;;;5110225;28;20663;-78
2021/06/08 10:11:23;;;;;;;1.38;1.20;;;;;31.80;102252.00;;;;5098229;28;20263;-77
2021/06/08 10:13:53;;;;;;;2.10;1.30;;;;;31.80;102251.00;;;;5101267;28;20212;-78
2021/06/08 10:16:32;;;;;;;1.92;1.58;;;;;31.80;102245.00;;;;5102650;28;20190;-79
2021/06/08 10:19:00;;;;;;;1.30;1.05;;;;;32.00;102242.00;;;;5106686;28;20200;-79
2021/06/08 10:21:36;;;;;;;1.50;1.33;;;;;31.90;102237.00;;;;5109533;28;20655;-78
2021/06/08 10:24:06;;;;;;;1.02;1.00;;;;;32.00;102245.00;;;;5109349;28;20687;-78
2021/06/08 10:26:35;;;;;;;2.13;1.30;;;;;32.10;102247.00;;;;5109845;28;20202;-78
2021/06/08 10:29:04;;;;;;;1.65;1.50;;;;;32.10;102248.00;;;;5109243;28;20479;-78
2021/06/08 10:31:34;;;;;;;1.63;1.50;;;;;32.10;102245.00;;;;5110066;28;20664;-78
2021/06/08 10:34:04;;;;;;;6.32;1.60;;;;;32.10;102247.00;;;;5110269;28;20282;-78
2021/06/08 10:36:31;;;;;;;1.48;1.38;;;;;32.20;102241.00;;;;5093990;28;20238;-78
2021/06/08 10:38:59;;;;;;;2.20;1.55;;;;;32.20;102251.00;;;;5107132;28;20209;-78
2021/06/08 10:41:26;;;;;;;1.40;1.30;;;;;32.20;102244.00;;;;5106346;28;20220;-77
2021/06/08 10:43:53;;;;;;;2.75;1.30;;;;;32.20;102245.00;;;;5110492;28;20212;-75
2021/06/08 10:46:25;;;;;;;1.58;1.48;;;;;32.10;102251.00;;;;5100800;28;20208;-75
2021/06/08 10:48:54;;;;;;;1.90;1.50;;;;;32.00;102251.00;;;;5109601;27;20692;-75
2021/06/08 10:51:22;;;;;;;1.98;1.50;;;;;31.90;102250.00;;;;5108068;28;20807;-76
2021/06/08 10:53:51;;;;;;;1.90;1.00;;;;;31.90;102242.00;;;;5106513;28;20198;-77
2021/06/08 10:56:36;;;;;;;2.20;1.60;;;;;31.80;102240.00;;;;5109738;28;20613;-76
2021/06/08 10:59:05;;;;;;;1.77;1.40;;;;;31.90;102242.00;;;;5110247;28;20562;-76
2021/06/08 11:01:48;;;;;;;1.58;1.48;;;;;31.80;102239.00;;;;5109625;28;20209;-75
2021/06/08 11:04:23;;;;;;;1.67;1.33;;;;;31.90;102237.00;;;;5102676;28;20228;-76
2021/06/08 11:06:57;;;;;;;2.75;0.93;;;;;31.90;102236.00;;;;5100719;28;20574;-76
2021/06/08 11:09:33;;;;;;;1.10;1.00;;;;;31.90;102234.00;;;;5101186;28;20291;-75
2021/06/08 11:12:02;;;;;;;1.98;1.30;;;;;31.90;102231.00;;;;5105063;28;20224;-75
2021/06/08 11:14:55;;;;;;;2.38;1.75;;;;;31.80;102234.00;;;;5091737;28;20209;-74
2021/06/08 11:17:38;;;;;;;1.67;1.10;;;;;31.90;102235.00;;;;5109017;28;20201;-75
2021/06/08 11:20:18;;;;;;;2.40;1.40;;;;;31.90;102234.00;;;;5105669;28;20198;-75
2021/06/08 11:23:07;;;;;;;2.08;1.25;;;;;31.80;102235.00;;;;5109730;28;20201;-75
2021/06/08 11:25:52;;;;;;;1.35;1.13;;;;;31.90;102233.00;;;;5108983;28;20225;-75
2021/06/08 11:28:19;;;;;;;1.30;1.20;;;;;32.00;102228.00;;;;5108487;28;20288;-75
2021/06/08 11:30:56;;;;;;;1.80;1.50;;;;;31.80;102232.00;;;;5102703;28;20194;-75
2021/06/08 11:33:34;;;;;;;0.70;0.70;;;;;31.80;102232.00;;;;5105048;28;20228;-75
2021/06/08 11:36:24;;;;;;;1.27;1.17;;;;;31.90;102226.00;;;;5106355;28;20197;-76
2021/06/08 11:38:52;;;;;;;2.97;1.02;;;;;32.00;102229.00;;;;5099730;28;20198;-75
2021/06/08 11:41:20;;;;;;;1.00;0.90;;;;;32.00;102223.00;;;;5105283;28;20579;-76
2021/06/08 11:43:58;;;;;;;2.15;1.00;;;;;31.90;102219.00;;;;5106371;28;20621;-76
2021/06/08 11:46:59;;;;;;;1.35;1.00;;;;;31.90;102219.00;;;;5095430;28;20196;-76
2021/06/08 11:49:28;;;;;;;1.90;1.30;;;;;32.10;102217.00;;;;5091067;28;20196;-75
2021/06/08 11:52:09;;;;;;;1.70;1.33;;;;;32.00;102212.00;;;;5108979;28;20192;-76
2021/06/08 11:54:48;;;;;;;1.77;1.10;;;;;32.00;102219.00;;;;5105762;28;20266;-75
2021/06/08 11:57:34;;;;;;;1.52;1.10;;;;;32.10;102217.00;;;;5105090;28;20201;-76
2021/06/08 12:00:03;;;;;;;1.30;1.20;;;;;32.00;102212.00;;;;5108157;28;20229;-76
2021/06/08 12:02:32;;;;;;;1.38;1.00;;;;;32.00;102213.00;;;;5096914;28;20224;-75
2021/06/08 12:05:22;;;;;;;1.02;0.93;;;;;31.80;102214.00;;;;5097832;28;20222;-76
2021/06/08 12:07:53;;;;;;;0.85;0.80;;;;;31.90;102212.00;;;;5086714;28;20243;-76
2021/06/08 12:10:32;;;;;;;1.23;0.85;;;;;31.80;102205.00;;;;5106050;28;20675;-76
2021/06/08 12:12:59;;;;;;;2.65;1.05;;;;;31.90;102209.00;;;;5108107;28;20226;-76
2021/06/08 12:15:28;;;;;;;1.10;1.00;;;;;31.90;102200.00;;;;5095914;28;20213;-76
2021/06/08 12:17:56;;;;;;;2.88;1.00;;;;;31.90;102198.00;;;;5100762;28;20213;-75
2021/06/08 12:20:23;;;;;;;1.13;1.00;;;;;31.90;102202.00;;;;5104597;28;20189;-75
2021/06/08 12:22:51;;;;;;;1.63;1.10;;;;;31.90;102206.00;;;;5098133;28;20614;-76
2021/06/08 12:25:19;;;;;;;1.42;0.90;;;;;32.00;102198.00;;;;5107776;28;20232;-76
2021/06/08 12:27:47;;;;;;;1.10;0.65;;;;;32.00;102194.00;;;;5108151;28;20189;-75